createdAt,value
2023-03-05T00:00:22.538Z,-2.17
2023-03-05T00:03:13.741Z,-2.11
2023-03-05T00:05:47.336Z,-2.04
2023-03-05T00:08:26.889Z,-1.95
2023-03-05T00:11:07.995Z,-1.94
2023-03-05T00:13:39.483Z,-1.86
2023-03-05T00:16:18.295Z,-1.78
2023-03-05T00:18:50.141Z,-1.69
2023-03-05T00:21:45.039Z,-1.61
2023-03-05T00:24:19.427Z,-1.54
2023-03-05T00:26:48.411Z,-1.49
2023-03-05T00:29:23.497Z,-1.43
2023-03-05T00:32:03.003Z,-1.41
2023-03-05T00:34:35.938Z,-1.45
2023-03-05T00:37:13.732Z,-1.44
2023-03-05T00:39:44.592Z,-1.42
2023-03-05T00:42:15.646Z,-1.38
2023-03-05T00:44:47.330Z,-1.33
2023-03-05T00:47:20.169Z,-1.28
2023-03-05T00:49:49.218Z,-1.24
2023-03-05T00:52:23.901Z,-1.19
2023-03-05T00:54:57.312Z,-1.12
2023-03-05T00:57:27.491Z,-1.05
2023-03-05T00:59:59.522Z,-0.97
2023-03-05T01:02:29.437Z,-0.89
2023-03-05T01:05:01.843Z,-0.81
2023-03-05T01:07:31.111Z,-0.76
2023-03-05T01:10:10.393Z,-0.71
2023-03-05T01:12:43.116Z,-0.68
2023-03-05T01:15:21.592Z,-0.64
2023-03-05T01:17:55.800Z,-0.59
2023-03-05T01:20:29.484Z,-0.55
2023-03-05T01:23:10.341Z,-0.50
2023-03-05T01:25:45.247Z,-0.47
2023-03-05T01:28:14.474Z,-0.45
2023-03-05T01:30:43.241Z,-0.40
2023-03-05T01:33:14.194Z,-0.35
2023-03-05T01:35:53.717Z,-0.31
2023-03-05T01:38:24.805Z,-0.27
2023-03-05T01:40:54.256Z,-0.21
2023-03-05T01:43:31.323Z,-0.15
2023-03-05T01:46:34.330Z,-0.10
2023-03-05T01:49:29.248Z,-0.06
2023-03-05T01:52:17.582Z,-0.03
2023-03-05T01:55:04.875Z,0.02
2023-03-05T01:57:49.940Z,0.05
2023-03-05T02:00:47.128Z,0.06
2023-03-05T02:03:18.054Z,0.11
2023-03-05T02:05:47.133Z,0.16
2023-03-05T02:08:22.542Z,0.21
2023-03-05T02:11:00.229Z,0.24
2023-03-05T02:13:40.538Z,0.24
2023-03-05T02:16:13.239Z,0.24
2023-03-05T02:18:42.325Z,0.26
2023-03-05T02:21:12.660Z,0.19
2023-03-05T02:23:44.442Z,0.18
2023-03-05T02:26:20.703Z,0.21
2023-03-05T02:29:00.248Z,0.24
2023-03-05T02:31:34.181Z,0.26
2023-03-05T02:34:03.189Z,0.29
2023-03-05T02:36:33.151Z,0.33
2023-03-05T02:39:02.957Z,0.33
2023-03-05T02:41:32.156Z,0.35
2023-03-05T02:44:03.005Z,0.36
2023-03-05T02:46:32.254Z,0.38
2023-03-05T02:49:05.884Z,0.37
2023-03-05T02:51:48.848Z,0.34
2023-03-05T02:54:31.656Z,0.29
2023-03-05T02:57:00.734Z,0.23
2023-03-05T02:59:32.541Z,0.17
2023-03-05T03:02:07.400Z,0.11
2023-03-05T03:04:38.844Z,0.05
2023-03-05T03:07:15.771Z,-0.03
2023-03-05T03:09:48.260Z,-0.10
2023-03-05T03:12:17.018Z,-0.18
2023-03-05T03:14:45.750Z,-0.22
2023-03-05T03:17:18.441Z,-0.26
2023-03-05T03:19:49.973Z,-0.31
2023-03-05T03:22:18.996Z,-0.34
2023-03-05T03:24:47.878Z,-0.37
2023-03-05T03:27:16.872Z,-0.41
2023-03-05T03:29:45.707Z,-0.43
2023-03-05T03:32:16.803Z,-0.45
2023-03-05T03:34:47.842Z,-0.49
2023-03-05T03:37:20.184Z,-0.52
2023-03-05T03:39:48.503Z,-0.55
2023-03-05T03:42:23.720Z,-0.57
2023-03-05T03:44:52.905Z,-0.59
2023-03-05T03:47:27.210Z,-0.63
2023-03-05T03:49:58.725Z,-0.72
2023-03-05T03:52:33.215Z,-0.77
2023-03-05T03:55:06.726Z,-0.75
2023-03-05T03:57:36.569Z,-0.72
2023-03-05T04:00:07.172Z,-0.67
2023-03-05T04:02:40.815Z,-0.62
2023-03-05T04:05:12.711Z,-0.57
2023-03-05T04:07:45.423Z,-0.51
2023-03-05T04:10:20.127Z,-0.46
2023-03-05T04:12:48.947Z,-0.39
2023-03-05T04:15:19.810Z,-0.34
2023-03-05T04:17:52.012Z,-0.29
2023-03-05T04:20:21.111Z,-0.32
2023-03-05T04:22:50.373Z,-0.32
2023-03-05T04:25:21.748Z,-0.26
2023-03-05T04:27:56.801Z,-0.22
2023-03-05T04:30:26.317Z,-0.17
2023-03-05T04:32:57.793Z,-0.14
2023-03-05T04:35:27.672Z,-0.13
2023-03-05T04:37:57.136Z,-0.15
2023-03-05T04:40:30.736Z,-0.15
2023-03-05T04:43:02.340Z,-0.16
2023-03-05T04:45:34.556Z,-0.17
2023-03-05T04:48:03.802Z,-0.14
2023-03-05T04:50:35.101Z,-0.12
2023-03-05T04:53:08.935Z,-0.10
2023-03-05T04:55:40.339Z,-0.07
2023-03-05T04:58:14.265Z,-0.05
2023-03-05T05:00:44.180Z,-0.04
2023-03-05T05:03:13.891Z,-0.01
2023-03-05T05:05:58.761Z,-0.02
2023-03-05T05:08:32.975Z,-0.02
2023-03-05T05:11:05.179Z,-0.01
2023-03-05T05:13:44.597Z,-0.07
2023-03-05T05:16:25.258Z,-0.06
2023-03-05T05:18:59.437Z,-0.04
2023-03-05T05:21:28.461Z,0.01
2023-03-05T05:23:59.280Z,0.06
2023-03-05T05:26:31.619Z,0.07
2023-03-05T05:29:01.792Z,0.08
2023-03-05T05:31:36.329Z,0.10
2023-03-05T05:34:08.490Z,0.09
2023-03-05T05:36:43.295Z,0.08
2023-03-05T05:39:12.128Z,0.07
2023-03-05T05:41:40.937Z,0.06
2023-03-05T05:44:10.474Z,0.08
2023-03-05T05:46:39.578Z,0.07
2023-03-05T05:49:11.533Z,0.11
2023-03-05T05:51:42.211Z,0.14
2023-03-05T05:54:16.492Z,0.16
2023-03-05T05:56:47.420Z,0.18
2023-03-05T05:59:16.501Z,0.20
2023-03-05T06:01:45.619Z,0.22
2023-03-05T06:04:13.925Z,0.24
2023-03-05T06:06:46.269Z,0.25
2023-03-05T06:09:20.095Z,0.19
2023-03-05T06:11:51.375Z,0.18
2023-03-05T06:14:25.846Z,0.19
2023-03-05T06:17:12.942Z,0.20
2023-03-05T06:19:43.787Z,0.24
2023-03-05T06:22:22.290Z,0.27
2023-03-05T06:24:53.330Z,0.30
2023-03-05T06:27:30.916Z,0.33
2023-03-05T06:30:12.699Z,0.36
2023-03-05T06:33:06.479Z,0.37
2023-03-05T06:35:42.550Z,0.36
2023-03-05T06:38:16.772Z,0.36
2023-03-05T06:40:47.945Z,0.38
2023-03-05T06:43:22.547Z,0.42
2023-03-05T06:46:08.762Z,0.46
2023-03-05T06:48:47.662Z,0.49
2023-03-05T06:51:30.567Z,0.52
2023-03-05T06:54:13.723Z,0.56
2023-03-05T06:56:47.315Z,0.57
2023-03-05T06:59:19.622Z,0.63
2023-03-05T07:02:05.554Z,0.67
2023-03-05T07:04:39.840Z,0.74
2023-03-05T07:07:08.623Z,0.80
2023-03-05T07:09:43.834Z,0.84
2023-03-05T07:12:27.872Z,0.84
2023-03-05T07:15:11.035Z,0.82
2023-03-05T07:17:48.611Z,0.79
2023-03-05T07:20:21.697Z,0.78
2023-03-05T07:23:04.846Z,0.77
2023-03-05T07:25:45.432Z,0.77
2023-03-05T07:28:19.680Z,0.76
2023-03-05T07:31:02.639Z,0.78
2023-03-05T07:33:42.165Z,0.80
2023-03-05T07:36:14.508Z,0.83
2023-03-05T07:38:46.638Z,0.86
2023-03-05T07:41:24.586Z,0.89
2023-03-05T07:43:57.039Z,0.90
2023-03-05T07:46:33.085Z,0.90
2023-03-05T07:49:02.216Z,0.91
2023-03-05T07:51:34.942Z,0.94
2023-03-05T07:54:07.157Z,1.00
2023-03-05T07:56:55.768Z,1.08
2023-03-05T07:59:32.065Z,1.11
2023-03-05T08:02:06.027Z,1.12
2023-03-05T08:04:38.486Z,1.15
2023-03-05T08:07:16.870Z,1.15
2023-03-05T08:10:09.198Z,1.15
2023-03-05T08:13:02.071Z,1.15
2023-03-05T08:15:46.810Z,1.18
2023-03-05T08:18:18.945Z,1.22
2023-03-05T08:20:48.465Z,1.18
2023-03-05T08:23:25.058Z,1.16
2023-03-05T08:25:54.973Z,1.19
2023-03-05T08:28:26.126Z,1.18
2023-03-05T08:30:58.487Z,1.05
2023-03-05T08:33:33.838Z,1.02
2023-03-05T08:36:13.754Z,1.06
2023-03-05T08:38:53.297Z,1.11
2023-03-05T08:41:23.365Z,1.20
2023-03-05T08:43:59.794Z,1.34
2023-03-05T08:46:31.767Z,1.44
2023-03-05T08:49:07.001Z,1.47
2023-03-05T08:51:36.223Z,1.42
2023-03-05T08:54:10.590Z,1.37
2023-03-05T08:56:41.885Z,1.32
2023-03-05T08:59:14.358Z,1.28
2023-03-05T09:01:53.820Z,1.26
2023-03-05T09:04:25.627Z,1.21
2023-03-05T09:07:05.521Z,1.26
2023-03-05T09:09:43.087Z,1.37
2023-03-05T09:12:20.210Z,1.45
2023-03-05T09:15:05.075Z,1.50
2023-03-05T09:17:44.520Z,1.52
2023-03-05T09:20:20.976Z,1.51
2023-03-05T09:22:58.568Z,1.52
2023-03-05T09:25:34.285Z,1.57
2023-03-05T09:28:06.752Z,1.61
2023-03-05T09:30:45.593Z,1.58
2023-03-05T09:33:14.851Z,1.53
2023-03-05T09:35:48.730Z,1.50
2023-03-05T09:38:29.039Z,1.50
2023-03-05T09:41:17.663Z,1.48
2023-03-05T09:44:58.109Z,1.46
2023-03-05T09:47:49.742Z,1.43
2023-03-05T09:50:36.264Z,1.41
2023-03-05T09:53:28.546Z,1.46
2023-03-05T09:56:12.352Z,1.52
2023-03-05T09:58:51.236Z,1.52
2023-03-05T10:01:41.632Z,1.51
2023-03-05T10:04:25.238Z,1.49
2023-03-05T10:07:08.857Z,1.52
2023-03-05T10:09:55.921Z,1.55
2023-03-05T10:12:52.987Z,1.62
2023-03-05T10:16:27.609Z,1.67
2023-03-05T10:19:25.656Z,1.68
2023-03-05T10:23:08.600Z,1.69
2023-03-05T10:26:04.105Z,1.69
2023-03-05T10:28:56.958Z,1.69
2023-03-05T10:31:52.782Z,1.82
2023-03-05T10:35:07.488Z,1.91
2023-03-05T10:37:55.093Z,2.03
2023-03-05T10:40:51.748Z,2.16
2023-03-05T10:44:15.429Z,2.33
2023-03-05T10:47:52.106Z,2.47
2023-03-05T10:50:28.169Z,2.52
2023-03-05T10:53:56.488Z,2.50
2023-03-05T10:56:29.279Z,2.33
2023-03-05T10:59:03.436Z,2.22
2023-03-05T11:01:37.678Z,2.19
2023-03-05T11:04:57.765Z,2.20
2023-03-05T11:07:41.052Z,2.24
2023-03-05T11:10:23.408Z,2.28
2023-03-05T11:12:56.182Z,2.32
2023-03-05T11:15:30.996Z,2.28
2023-03-05T11:18:21.906Z,2.27
2023-03-05T11:20:51.459Z,2.32
2023-03-05T11:23:28.360Z,2.49
2023-03-05T11:26:11.874Z,2.76
2023-03-05T11:28:56.383Z,2.96
2023-03-05T11:31:34.505Z,2.93
2023-03-05T11:34:20.507Z,2.85
2023-03-05T11:37:00.596Z,2.89
2023-03-05T11:39:38.079Z,2.95
2023-03-05T11:42:16.377Z,2.99
2023-03-05T11:44:56.023Z,3.05
2023-03-05T11:47:48.346Z,3.04
2023-03-05T11:50:34.206Z,3.11
2023-03-05T11:53:20.656Z,3.36
2023-03-05T11:56:10.215Z,3.67
2023-03-05T11:58:48.412Z,3.82
2023-03-05T12:01:27.294Z,3.87
2023-03-05T12:04:08.083Z,3.97
2023-03-05T12:07:02.333Z,4.05
2023-03-05T12:09:54.370Z,4.02
2023-03-05T12:12:30.490Z,4.01
2023-03-05T12:15:18.225Z,3.91
2023-03-05T12:18:20.154Z,3.78
2023-03-05T12:21:27.721Z,3.66
2023-03-05T12:24:01.321Z,3.51
2023-03-05T12:27:14.757Z,3.39
2023-03-05T12:29:52.298Z,3.21
2023-03-05T12:32:33.788Z,3.09
2023-03-05T12:35:32.663Z,3.00
2023-03-05T12:38:32.830Z,2.96
2023-03-05T12:41:37.231Z,3.00
2023-03-05T12:44:10.637Z,3.03
2023-03-05T12:46:53.666Z,2.99
2023-03-05T12:49:29.279Z,2.94
2023-03-05T12:52:01.439Z,2.94
2023-03-05T12:54:36.124Z,2.92
2023-03-05T12:57:29.280Z,2.90
2023-03-05T13:00:33.386Z,2.82
2023-03-05T13:03:23.301Z,2.75
2023-03-05T13:06:05.456Z,2.71
2023-03-05T13:08:50.487Z,2.67
2023-03-05T13:11:37.159Z,2.64
2023-03-05T13:14:44.322Z,2.68
2023-03-05T13:17:31.692Z,2.65
2023-03-05T13:20:27.447Z,2.66
2023-03-05T13:23:34.033Z,2.67
2023-03-05T13:26:23.522Z,2.72
2023-03-05T13:29:05.408Z,2.74
2023-03-05T13:31:57.744Z,2.70
2023-03-05T13:34:47.110Z,2.59
2023-03-05T13:37:34.358Z,2.55
2023-03-05T13:40:22.324Z,2.57
2023-03-05T13:43:13.638Z,2.58
2023-03-05T13:45:56.789Z,2.57
2023-03-05T13:48:37.635Z,2.52
2023-03-05T13:51:11.699Z,2.47
2023-03-05T13:53:43.332Z,2.42
2023-03-05T13:56:25.136Z,2.37
2023-03-05T13:59:00.618Z,2.31
2023-03-05T14:01:42.205Z,2.30
2023-03-05T14:04:14.187Z,2.25
2023-03-05T14:07:32.668Z,2.23
2023-03-05T14:10:05.340Z,2.17
2023-03-05T14:12:43.146Z,2.14
2023-03-05T14:15:30.883Z,2.12
2023-03-05T14:18:19.124Z,2.12
2023-03-05T14:21:10.308Z,2.09
2023-03-05T14:23:51.290Z,2.10
2023-03-05T14:26:34.854Z,2.10
2023-03-05T14:29:19.497Z,2.16
2023-03-05T14:32:19.607Z,2.27
2023-03-05T14:37:49.106Z,2.52
2023-03-05T14:40:28.139Z,2.56
2023-03-05T14:43:03.819Z,2.52
2023-03-05T14:45:42.836Z,2.47
2023-03-05T14:48:20.100Z,2.43
2023-03-05T14:51:03.830Z,2.40
2023-03-05T14:53:47.774Z,2.41
2023-03-05T14:56:33.847Z,2.32
2023-03-05T14:59:30.050Z,2.19
2023-03-05T15:02:13.930Z,2.05
2023-03-05T15:04:48.686Z,1.94
2023-03-05T15:07:23.756Z,1.83
2023-03-05T15:10:04.756Z,1.67
2023-03-05T15:12:38.573Z,1.50
2023-03-05T15:15:15.237Z,1.39
2023-03-05T15:17:47.603Z,1.29
2023-03-05T15:20:25.646Z,1.22
2023-03-05T15:22:58.171Z,1.13
2023-03-05T15:25:33.069Z,1.07
2023-03-05T15:28:04.795Z,0.91
2023-03-05T15:30:40.414Z,0.81
2023-03-05T15:33:34.059Z,0.77
2023-03-05T15:36:09.432Z,0.76
2023-03-05T15:38:46.282Z,0.77
2023-03-05T15:41:27.065Z,0.77
2023-03-05T15:44:01.884Z,0.76
2023-03-05T15:46:34.793Z,0.76
2023-03-05T15:49:15.603Z,0.75
2023-03-05T15:51:52.599Z,0.76
2023-03-05T15:54:23.172Z,0.78
2023-03-05T15:56:52.387Z,0.82
2023-03-05T15:59:28.199Z,0.87
2023-03-05T16:02:01.234Z,0.89
2023-03-05T16:04:38.022Z,0.91
2023-03-05T16:07:08.233Z,0.89
2023-03-05T16:09:43.271Z,0.88
2023-03-05T16:12:22.562Z,0.84
2023-03-05T16:14:59.255Z,0.78
2023-03-05T16:17:32.387Z,0.76
2023-03-05T16:20:06.671Z,0.73
2023-03-05T16:22:45.615Z,0.69
2023-03-05T16:25:30.772Z,0.66
2023-03-05T16:28:15.200Z,0.65
2023-03-05T16:31:03.088Z,0.62
2023-03-05T16:33:42.132Z,0.58
2023-03-05T16:36:16.834Z,0.57
2023-03-05T16:38:49.079Z,0.59
2023-03-05T16:41:33.268Z,0.61
2023-03-05T16:44:04.499Z,0.65
2023-03-05T16:46:41.026Z,0.68
2023-03-05T16:49:16.403Z,0.69
2023-03-05T16:51:52.005Z,0.70
2023-03-05T16:54:24.287Z,0.68
2023-03-05T16:59:56.644Z,0.60
2023-03-05T17:02:32.036Z,0.58
2023-03-05T17:05:12.650Z,0.55
2023-03-05T17:07:46.770Z,0.53
2023-03-05T17:10:22.545Z,0.60
2023-03-05T17:13:05.580Z,0.58
2023-03-05T17:15:35.032Z,0.58
2023-03-05T17:18:12.061Z,0.58
2023-03-05T17:20:43.228Z,0.57
2023-03-05T17:23:16.429Z,0.57
2023-03-05T17:25:47.458Z,0.58
2023-03-05T17:28:16.688Z,0.59
2023-03-05T17:30:48.807Z,0.62
2023-03-05T17:33:20.134Z,0.63
2023-03-05T17:35:48.866Z,0.63
2023-03-05T17:38:18.063Z,0.62
2023-03-05T17:40:46.565Z,0.63
2023-03-05T17:43:17.572Z,0.61
2023-03-05T17:46:00.408Z,0.62
2023-03-05T17:48:29.379Z,0.63
2023-03-05T17:51:07.062Z,0.65
2023-03-05T17:53:44.290Z,0.66
2023-03-05T17:56:21.619Z,0.67
2023-03-05T17:59:00.080Z,0.68
2023-03-05T18:01:36.190Z,0.68
2023-03-05T18:04:13.287Z,0.67
2023-03-05T18:06:43.044Z,0.65
2023-03-05T18:09:31.123Z,0.64
2023-03-05T18:12:08.565Z,0.64
2023-03-05T18:15:05.465Z,0.61
2023-03-05T18:17:39.013Z,0.57
2023-03-05T18:20:27.139Z,0.56
2023-03-05T18:22:58.389Z,0.53
2023-03-05T18:25:33.713Z,0.48
2023-03-05T18:28:14.647Z,0.46
2023-03-05T18:30:55.273Z,0.41
2023-03-05T18:33:30.307Z,0.37
2023-03-05T18:36:07.714Z,0.36
2023-03-05T18:38:47.273Z,0.34
2023-03-05T18:41:28.317Z,0.33
2023-03-05T18:43:58.443Z,0.33
2023-03-05T18:46:38.426Z,0.33
2023-03-05T18:49:17.503Z,0.30
2023-03-05T18:51:54.611Z,0.26
2023-03-05T18:58:19.670Z,0.15
2023-03-05T19:00:54.592Z,0.14
2023-03-05T19:03:48.868Z,0.18
2023-03-05T19:06:37.542Z,0.20
2023-03-05T19:09:26.828Z,0.21
2023-03-05T19:11:58.255Z,0.18
2023-03-05T19:14:29.112Z,0.15
2023-03-05T19:17:00.806Z,0.15
2023-03-05T19:19:42.327Z,0.17
2023-03-05T19:22:25.224Z,0.17
2023-03-05T19:24:56.277Z,0.16
2023-03-05T19:27:27.951Z,0.16
2023-03-05T19:30:03.807Z,0.15
2023-03-05T19:32:39.811Z,0.13
2023-03-05T19:35:15.816Z,0.12
2023-03-05T19:37:55.150Z,0.09
2023-03-05T19:40:30.087Z,0.04
2023-03-05T19:43:07.564Z,0.01
2023-03-05T19:45:38.013Z,-0.04
2023-03-05T19:48:24.254Z,-0.09
2023-03-05T19:51:03.711Z,-0.13
2023-03-05T19:54:09.638Z,-0.25
2023-03-05T19:56:45.538Z,-0.30
2023-03-05T19:59:27.835Z,-0.31
2023-03-05T20:02:06.519Z,-0.33
2023-03-05T20:04:41.814Z,-0.34
2023-03-05T20:07:12.666Z,-0.35
2023-03-05T20:10:01.959Z,-0.38
2023-03-05T20:12:51.178Z,-0.42
2023-03-05T20:15:52.783Z,-0.43
2023-03-05T20:18:31.803Z,-0.45
2023-03-05T20:21:14.162Z,-0.45
2023-03-05T20:24:04.758Z,-0.45
2023-03-05T20:26:43.172Z,-0.46
2023-03-05T20:29:17.643Z,-0.46
2023-03-05T20:31:58.775Z,-0.49
2023-03-05T20:34:29.932Z,-0.51
2023-03-05T20:37:12.260Z,-0.50
2023-03-05T20:39:45.934Z,-0.51
2023-03-05T20:42:25.554Z,-0.51
2023-03-05T20:44:55.909Z,-0.50
2023-03-05T20:47:40.832Z,-0.49
2023-03-05T20:50:11.368Z,-0.48
2023-03-05T20:52:41.134Z,-0.47
2023-03-05T20:55:11.528Z,-0.46
2023-03-05T20:57:46.402Z,-0.45
2023-03-05T21:00:25.205Z,-0.45
2023-03-05T21:03:07.898Z,-0.47
2023-03-05T21:05:48.045Z,-0.50
2023-03-05T21:08:25.307Z,-0.52
2023-03-05T21:10:56.294Z,-0.54
2023-03-05T21:13:30.696Z,-0.54
2023-03-05T21:16:14.741Z,-0.56
2023-03-05T21:18:58.156Z,-0.58
2023-03-05T21:21:38.658Z,-0.60
2023-03-05T21:24:12.373Z,-0.61
2023-03-05T21:26:41.583Z,-0.60
2023-03-05T21:29:21.557Z,-0.60
2023-03-05T21:31:50.239Z,-0.60
2023-03-05T21:34:20.393Z,-0.63
2023-03-05T21:36:54.301Z,-0.64
2023-03-05T21:39:35.885Z,-0.64
2023-03-05T21:42:15.815Z,-0.66
2023-03-05T21:45:07.594Z,-0.70
2023-03-05T21:47:43.699Z,-0.72
2023-03-05T21:50:20.243Z,-0.74
2023-03-05T21:52:49.945Z,-0.75
2023-03-05T21:55:31.904Z,-0.76
2023-03-05T21:58:00.685Z,-0.77
2023-03-05T22:00:31.939Z,-0.77
2023-03-05T22:03:00.627Z,-0.79
2023-03-05T22:05:31.653Z,-0.80
2023-03-05T22:08:02.074Z,-0.81
2023-03-05T22:10:33.522Z,-0.84
2023-03-05T22:13:05.386Z,-0.85
2023-03-05T22:15:40.305Z,-0.88
2023-03-05T22:18:09.052Z,-0.89
2023-03-05T22:20:37.640Z,-0.88
2023-03-05T22:23:09.531Z,-0.87
2023-03-05T22:25:41.037Z,-0.86
2023-03-05T22:28:13.381Z,-0.93
2023-03-05T22:30:45.846Z,-0.93
2023-03-05T22:33:22.029Z,-0.90
2023-03-05T22:35:56.178Z,-0.87
2023-03-05T22:38:25.450Z,-0.84
2023-03-05T22:40:57.301Z,-0.81
2023-03-05T22:43:25.833Z,-0.78
2023-03-05T22:45:53.985Z,-0.76
2023-03-05T22:48:22.466Z,-0.72
2023-03-05T22:50:55.875Z,-0.70
2023-03-05T22:53:24.571Z,-0.68
2023-03-05T22:56:00.175Z,-0.66
2023-03-05T22:58:28.520Z,-0.65
2023-03-05T23:00:56.714Z,-0.64
2023-03-05T23:03:25.390Z,-0.62
2023-03-05T23:05:56.818Z,-0.61
2023-03-05T23:08:37.470Z,-0.59
2023-03-05T23:11:12.290Z,-0.58
2023-03-05T23:13:45.309Z,-0.56
2023-03-05T23:16:16.719Z,-0.55
2023-03-05T23:18:51.924Z,-0.55
2023-03-05T23:21:23.497Z,-0.54
2023-03-05T23:23:55.618Z,-0.54
2023-03-05T23:26:38.065Z,-0.53
2023-03-05T23:29:12.129Z,-0.54
2023-03-05T23:31:44.397Z,-0.54
2023-03-05T23:34:15.606Z,-0.54
2023-03-05T23:36:50.045Z,-0.53
2023-03-05T23:39:20.116Z,-0.53
2023-03-05T23:41:54.437Z,-0.53
2023-03-05T23:44:32.106Z,-0.56
2023-03-05T23:47:01.363Z,-0.58
2023-03-05T23:49:38.375Z,-0.59
2023-03-05T23:52:07.489Z,-0.61
2023-03-05T23:54:36.073Z,-0.62
2023-03-05T23:57:13.154Z,-0.63
2023-03-05T23:59:41.776Z,-0.66
